Terminal Aerodrome Forecast
Issued by NWS

Home | Current Version | Previous Version | Text Only | Print | Product List | Glossary On
Versions: 1 2 3 4 5 6 7 8 9 10 11 12 13 14 15 16 17 18 19 20 21 22 23 24 25 26 27 28 29
000
FTUS41 KOKX 160300 AAB
TAFSWF
TAF AMD
KSWF 160323Z 1603/1706 31012G19KT 3SM -SN BKN015
      TEMPO 1603/1607 1 1/2SM -SN BKN009
     FM160700 32017G26KT P6SM SCT025 SCT150
      TEMPO 1607/1609 BKN025
     FM161600 33014G21KT P6SM SCT035
     FM161900 36012KT P6SM SKC
     FM170000 VRB04KT P6SM SKC
      AMD NOT SKED=

USA.gov is the U.S. government's official web portal to all federal, state and local government web resources and services.